createdAt,value
2023-01-18T00:02:28.367Z,98694.91
2023-01-18T00:05:30.523Z,98700.25
2023-01-18T00:08:33.513Z,98700.31
2023-01-18T00:11:35.108Z,98706.56
2023-01-18T00:14:36.662Z,98704.91
2023-01-18T00:17:47.831Z,98696.31
2023-01-18T00:20:49.473Z,98709.38
2023-01-18T00:23:51.372Z,98701.59
2023-01-18T00:26:52.941Z,98710.31
2023-01-18T00:29:55.367Z,98713.00
2023-01-18T00:32:59.096Z,98718.25
2023-01-18T00:36:02.977Z,98725.25
2023-01-18T00:39:04.641Z,98724.50
2023-01-18T00:42:35.462Z,98733.25
2023-01-18T00:45:37.128Z,98733.53
2023-01-18T00:48:40.029Z,98734.63
2023-01-18T00:51:41.586Z,98738.19
2023-01-18T00:54:43.269Z,98736.47
2023-01-18T00:57:44.835Z,98746.13
2023-01-18T01:00:48.309Z,98741.72
2023-01-18T01:04:08.276Z,98741.72
2023-01-18T01:07:09.813Z,98745.28
2023-01-18T01:10:11.370Z,98748.03
2023-01-18T01:13:33.237Z,98746.44
2023-01-18T01:16:52.936Z,98752.69
2023-01-18T01:20:13.045Z,98746.88
2023-01-18T01:23:42.798Z,98750.59
2023-01-18T01:26:44.350Z,98757.75
2023-01-18T01:29:45.985Z,98759.59
2023-01-18T01:32:47.675Z,98759.94
2023-01-18T01:35:49.968Z,98768.78
2023-01-18T01:38:51.864Z,98766.34
2023-01-18T01:41:53.445Z,98773.41
2023-01-18T01:44:55.148Z,98763.97
2023-01-18T01:47:57.523Z,98772.91
2023-01-18T01:50:59.201Z,98773.06
2023-01-18T01:54:04.752Z,98774.16
2023-01-18T01:57:12.456Z,98765.63
2023-01-18T02:00:19.629Z,98764.03
2023-01-18T02:03:23.120Z,98758.13
2023-01-18T02:06:31.625Z,98766.13
2023-01-18T02:09:33.329Z,98757.53
2023-01-18T02:12:36.688Z,98748.94
2023-01-18T02:15:56.839Z,98756.94
2023-01-18T02:19:10.160Z,98763.06
2023-01-18T02:22:23.267Z,98765.78
2023-01-18T02:25:36.935Z,98776.38
2023-01-18T02:28:41.795Z,98776.47
2023-01-18T02:32:06.588Z,98775.63
2023-01-18T02:35:18.323Z,98773.00
2023-01-18T02:38:44.387Z,98774.00
2023-01-18T02:42:10.016Z,98769.69
2023-01-18T02:45:44.508Z,98773.25
2023-01-18T02:48:48.875Z,98775.06
2023-01-18T02:51:50.481Z,98775.06
2023-01-18T02:54:52.112Z,98769.09
2023-01-18T02:58:08.448Z,98770.03
2023-01-18T03:01:26.731Z,98772.66
2023-01-18T03:04:31.269Z,98771.84
2023-01-18T03:07:39.386Z,98768.50
2023-01-18T03:10:55.152Z,98775.56
2023-01-18T03:14:05.522Z,98767.72
2023-01-18T03:17:29.382Z,98763.44
2023-01-18T03:20:34.612Z,98775.72
2023-01-18T03:23:40.735Z,98785.34
2023-01-18T03:26:48.305Z,98781.94
2023-01-18T03:30:08.706Z,98785.41
2023-01-18T03:33:29.797Z,98793.31
2023-01-18T03:36:35.972Z,98790.88
2023-01-18T03:39:51.804Z,98791.78
2023-01-18T03:43:11.530Z,98790.09
2023-01-18T03:46:17.444Z,98795.38
2023-01-18T03:49:19.053Z,98800.69
2023-01-18T03:52:25.932Z,98800.84
2023-01-18T03:55:39.251Z,98807.06
2023-01-18T03:58:42.395Z,98816.84
2023-01-18T04:01:45.102Z,98815.28
2023-01-18T04:04:46.735Z,98817.22
2023-01-18T04:07:49.060Z,98809.53
2023-01-18T04:10:50.615Z,98814.75
2023-01-18T04:13:54.453Z,98817.28
2023-01-18T04:16:56.179Z,98821.69
2023-01-18T04:19:57.722Z,98820.81
2023-01-18T04:22:59.649Z,98831.25
2023-01-18T04:26:01.369Z,98832.13
2023-01-18T04:29:03.646Z,98842.56
2023-01-18T04:32:05.663Z,98833.88
2023-01-18T04:35:07.594Z,98834.78
2023-01-18T04:38:09.180Z,98833.94
2023-01-18T04:41:10.742Z,98834.78
2023-01-18T04:44:13.102Z,98831.31
2023-01-18T04:47:14.642Z,98840.00
2023-01-18T04:50:16.463Z,98849.53
2023-01-18T04:53:18.199Z,98846.06
2023-01-18T04:56:19.839Z,98849.53
2023-01-18T04:59:21.363Z,98855.66
2023-01-18T05:02:22.918Z,98853.16
2023-01-18T05:05:26.322Z,98855.75
2023-01-18T05:08:28.065Z,98855.00
2023-01-18T05:11:29.809Z,98859.34
2023-01-18T05:14:31.357Z,98852.44
2023-01-18T05:17:34.576Z,98866.44
2023-01-18T05:20:36.185Z,98867.41
2023-01-18T05:23:39.933Z,98870.16
2023-01-18T05:26:41.499Z,98873.78
2023-01-18T05:29:44.073Z,98870.41
2023-01-18T05:32:45.677Z,98878.28
2023-01-18T05:35:52.010Z,98872.28
2023-01-18T05:38:55.032Z,98875.91
2023-01-18T05:41:58.729Z,98872.53
2023-01-18T05:45:01.600Z,98886.56
2023-01-18T05:48:04.035Z,98878.88
2023-01-18T05:51:09.704Z,98878.31
2023-01-18T05:54:12.053Z,98889.09
2023-01-18T05:57:13.643Z,98890.72
2023-01-18T06:00:15.371Z,98888.25
2023-01-18T06:03:17.116Z,98902.41
2023-01-18T06:06:18.668Z,98896.66
2023-01-18T06:09:20.253Z,98902.16
2023-01-18T06:12:21.937Z,98902.44
2023-01-18T06:15:23.509Z,98909.66
2023-01-18T06:18:26.950Z,98910.75
2023-01-18T06:21:28.484Z,98911.81
2023-01-18T06:24:30.038Z,98916.31
2023-01-18T06:27:31.672Z,98905.22
2023-01-18T06:30:34.521Z,98914.94
2023-01-18T06:33:36.152Z,98925.53
2023-01-18T06:36:38.860Z,98923.13
2023-01-18T06:39:40.405Z,98926.81
2023-01-18T06:42:42.063Z,98929.56
2023-01-18T06:45:43.819Z,98942.75
2023-01-18T06:48:45.450Z,98948.09
2023-01-18T06:51:47.011Z,98957.84
2023-01-18T06:54:48.580Z,98958.97
2023-01-18T06:57:50.172Z,98966.81
2023-01-18T07:00:59.614Z,98976.38
2023-01-18T07:04:01.282Z,98976.34
2023-01-18T07:07:02.834Z,98985.91
2023-01-18T07:10:04.719Z,98986.81
2023-01-18T07:13:06.266Z,98983.38
2023-01-18T07:16:09.105Z,98992.97
2023-01-18T07:19:10.667Z,98998.28
2023-01-18T07:22:13.241Z,99000.06
2023-01-18T07:25:18.711Z,99016.03
2023-01-18T07:28:20.252Z,99022.50
2023-01-18T07:31:23.862Z,99015.19
2023-01-18T07:34:25.455Z,99025.03
2023-01-18T07:37:27.022Z,99034.81
2023-01-18T07:40:28.593Z,99039.38
2023-01-18T07:43:32.263Z,99041.28
2023-01-18T07:46:33.881Z,99037.91
2023-01-18T07:49:35.485Z,99041.50
2023-01-18T07:52:37.073Z,99058.03
2023-01-18T07:55:40.680Z,99051.13
2023-01-18T07:58:42.520Z,99054.66
2023-01-18T08:01:44.125Z,99057.31
2023-01-18T08:04:49.982Z,99055.56
2023-01-18T08:07:53.595Z,99066.06
2023-01-18T08:10:57.003Z,99065.22
2023-01-18T08:13:58.572Z,99064.34
2023-01-18T08:17:00.362Z,99062.97
2023-01-18T08:20:02.060Z,99073.91
2023-01-18T08:23:04.784Z,99074.75
2023-01-18T08:26:07.377Z,99081.81
2023-01-18T08:29:08.941Z,99084.56
2023-01-18T08:32:10.556Z,99088.13
2023-01-18T08:35:12.124Z,99088.28
2023-01-18T08:38:15.864Z,99086.63
2023-01-18T08:41:18.608Z,99098.81
2023-01-18T08:44:20.332Z,99101.44
2023-01-18T08:47:21.844Z,99104.03
2023-01-18T08:50:24.121Z,99112.69
2023-01-18T08:53:25.640Z,99116.06
2023-01-18T08:56:28.195Z,99121.28
2023-01-18T08:59:29.768Z,99125.56
2023-01-18T09:02:31.404Z,99129.81
2023-01-18T09:05:34.708Z,99136.66
2023-01-18T09:08:36.711Z,99145.28
2023-01-18T09:11:38.283Z,99139.09
2023-01-18T09:14:40.196Z,99150.19
2023-01-18T09:17:41.781Z,99152.50
2023-01-18T09:20:43.611Z,99146.22
2023-01-18T09:23:45.668Z,99151.28
2023-01-18T09:26:51.147Z,99158.03
2023-01-18T09:29:52.958Z,99160.53
2023-01-18T09:32:54.645Z,99164.75
2023-01-18T09:35:57.500Z,99167.25
2023-01-18T09:38:59.098Z,99169.66
2023-01-18T09:42:02.713Z,99171.97
2023-01-18T09:45:05.028Z,99179.34
2023-01-18T09:48:16.705Z,99175.31
2023-01-18T09:51:30.929Z,99177.53
2023-01-18T09:54:51.811Z,99184.09
2023-01-18T09:58:24.500Z,99183.59
2023-01-18T10:01:31.996Z,99189.31
2023-01-18T10:04:39.511Z,99192.41
2023-01-18T10:08:05.141Z,99196.47
2023-01-18T10:11:15.020Z,99197.09
2023-01-18T10:14:29.644Z,99195.88
2023-01-18T10:17:42.525Z,99188.56
2023-01-18T10:20:51.829Z,99195.97
2023-01-18T10:24:12.223Z,99186.13
2023-01-18T10:27:37.640Z,99197.16
2023-01-18T10:31:03.749Z,99195.94
2023-01-18T10:34:15.157Z,99196.56
2023-01-18T10:37:25.829Z,99189.34
2023-01-18T10:40:27.457Z,99187.34
2023-01-18T10:43:31.860Z,99203.66
2023-01-18T10:46:33.558Z,99206.97
2023-01-18T10:49:37.284Z,99206.75
2023-01-18T10:52:38.834Z,99199.59
2023-01-18T10:55:40.373Z,99199.28
2023-01-18T10:58:51.113Z,99197.19
2023-01-18T11:01:56.941Z,99191.66
2023-01-18T11:05:18.118Z,99197.34
2023-01-18T11:08:31.761Z,99194.28
2023-01-18T11:11:51.699Z,99194.78
2023-01-18T11:14:53.263Z,99197.72
2023-01-18T11:17:58.073Z,99200.69
2023-01-18T11:20:59.905Z,99201.13
2023-01-18T11:24:13.136Z,99201.56
2023-01-18T11:27:24.251Z,99195.06
2023-01-18T11:30:27.301Z,99186.78
2023-01-18T11:33:30.960Z,99191.72
2023-01-18T11:36:38.514Z,99190.34
2023-01-18T11:39:40.332Z,99192.50
2023-01-18T11:42:41.954Z,99191.97
2023-01-18T11:46:09.825Z,99184.28
2023-01-18T11:49:29.829Z,99186.63
2023-01-18T11:52:37.369Z,99184.47
2023-01-18T11:55:47.936Z,99182.44
2023-01-18T11:58:52.352Z,99184.03
2023-01-18T12:01:56.975Z,99181.25
2023-01-18T12:05:30.711Z,99182.75
2023-01-18T12:08:54.998Z,99190.63
2023-01-18T12:12:19.646Z,99171.31
2023-01-18T12:15:41.942Z,99182.69
2023-01-18T12:18:46.287Z,99181.81
2023-01-18T12:22:18.434Z,99178.34
2023-01-18T12:25:37.996Z,99171.31
2023-01-18T12:29:00.498Z,99174.81
2023-01-18T12:32:27.677Z,99178.19
2023-01-18T12:35:49.441Z,99177.94
2023-01-18T12:38:54.591Z,99182.06
2023-01-18T12:42:00.576Z,99174.94
2023-01-18T12:45:17.450Z,99172.06
2023-01-18T12:48:27.501Z,99177.09
2023-01-18T12:51:34.477Z,99178.72
2023-01-18T12:54:41.853Z,99179.50
2023-01-18T12:57:46.477Z,99173.22
2023-01-18T13:00:57.079Z,99175.72
2023-01-18T13:04:05.539Z,99183.50
2023-01-18T13:07:14.370Z,99181.72
2023-01-18T13:10:23.621Z,99177.44
2023-01-18T13:13:29.094Z,99182.69
2023-01-18T13:17:11.018Z,99187.94
2023-01-18T13:20:42.023Z,99194.13
2023-01-18T13:24:00.089Z,99191.50
2023-01-18T13:27:15.733Z,99196.84
2023-01-18T13:30:19.316Z,99201.25
2023-01-18T13:33:24.261Z,99204.81
2023-01-18T13:36:26.018Z,99209.13
2023-01-18T13:39:28.394Z,99206.50
2023-01-18T13:42:40.828Z,99216.91
2023-01-18T13:46:02.344Z,99205.56
2023-01-18T13:49:37.661Z,99206.56
2023-01-18T13:52:43.442Z,99211.81
2023-01-18T13:56:13.298Z,99209.31
2023-01-18T13:59:25.985Z,99213.72
2023-01-18T14:02:34.101Z,99213.81
2023-01-18T14:05:44.678Z,99230.41
2023-01-18T14:08:53.778Z,99226.94
2023-01-18T14:11:57.255Z,99235.75
2023-01-18T14:15:01.090Z,99241.00
2023-01-18T14:18:02.960Z,99238.47
2023-01-18T14:21:26.440Z,99236.69
2023-01-18T14:24:30.682Z,99230.59
2023-01-18T14:27:41.536Z,99248.03
2023-01-18T14:30:45.748Z,99248.13
2023-01-18T14:33:47.307Z,99246.41
2023-01-18T14:36:48.959Z,99250.00
2023-01-18T14:40:06.233Z,99249.25
2023-01-18T14:43:15.775Z,99242.28
2023-01-18T14:46:26.529Z,99242.28
2023-01-18T14:49:38.730Z,99254.66
2023-01-18T14:52:43.033Z,99252.38
2023-01-18T14:56:05.046Z,99254.06
2023-01-18T14:59:24.559Z,99255.66
2023-01-18T15:02:27.711Z,99255.53
2023-01-18T15:05:30.552Z,99249.09
2023-01-18T15:08:34.584Z,99242.94
2023-01-18T15:11:38.207Z,99245.63
2023-01-18T15:14:44.717Z,99247.59
2023-01-18T15:17:46.271Z,99251.75
2023-01-18T15:20:58.213Z,99249.78
2023-01-18T15:24:06.550Z,99247.88
2023-01-18T15:27:14.330Z,99257.38
2023-01-18T15:30:16.715Z,99256.31
2023-01-18T15:33:20.538Z,99257.81
2023-01-18T15:36:22.396Z,99261.66
2023-01-18T15:39:24.432Z,99262.84
2023-01-18T15:42:32.246Z,99253.69
2023-01-18T15:45:38.762Z,99260.84
2023-01-18T15:48:54.073Z,99247.16
2023-01-18T15:51:58.672Z,99252.19
2023-01-18T15:55:02.105Z,99259.56
2023-01-18T15:58:10.003Z,99264.53
2023-01-18T16:01:12.065Z,99268.53
2023-01-18T16:04:13.631Z,99279.78
2023-01-18T16:07:25.828Z,99278.47
2023-01-18T16:10:30.924Z,99282.41
2023-01-18T16:13:35.554Z,99284.72
2023-01-18T16:16:41.011Z,99283.63
2023-01-18T16:19:46.051Z,99286.81
2023-01-18T16:22:48.327Z,99288.28
2023-01-18T16:26:02.061Z,99292.34
2023-01-18T16:29:10.491Z,99291.91
2023-01-18T16:32:30.007Z,99292.16
2023-01-18T16:35:31.622Z,99295.00
2023-01-18T16:38:33.159Z,99301.44
2023-01-18T16:41:34.748Z,99298.38
2023-01-18T16:44:37.115Z,99291.59
2023-01-18T16:47:38.781Z,99302.44
2023-01-18T16:50:40.333Z,99305.31
2023-01-18T16:53:41.948Z,99310.72
2023-01-18T16:56:46.631Z,99303.22
2023-01-18T16:59:49.154Z,99306.16
2023-01-18T17:02:51.736Z,99302.00
2023-01-18T17:05:53.617Z,99300.47
2023-01-18T17:08:55.178Z,99306.72
2023-01-18T17:11:56.823Z,99293.00
2023-01-18T17:14:58.354Z,99302.72
2023-01-18T17:18:01.149Z,99302.84
2023-01-18T17:21:02.774Z,99302.22
2023-01-18T17:24:05.995Z,99304.16
2023-01-18T17:27:10.098Z,99299.16
2023-01-18T17:30:15.053Z,99305.41
2023-01-18T17:33:19.539Z,99318.53
2023-01-18T17:36:21.143Z,99310.75
2023-01-18T17:39:24.879Z,99316.22
2023-01-18T17:42:33.671Z,99314.78
2023-01-18T17:45:35.290Z,99321.88
2023-01-18T17:48:36.974Z,99319.31
2023-01-18T17:51:38.598Z,99322.94
2023-01-18T17:54:40.162Z,99323.03
2023-01-18T17:57:41.909Z,99324.03
2023-01-18T18:00:43.467Z,99314.56
2023-01-18T18:03:47.765Z,99326.91
2023-01-18T18:06:54.480Z,99328.59
2023-01-18T18:10:00.841Z,99332.91
2023-01-18T18:13:03.217Z,99331.22
2023-01-18T18:16:05.332Z,99334.84
2023-01-18T18:19:07.053Z,99340.00
2023-01-18T18:22:08.641Z,99332.06
2023-01-18T18:25:10.257Z,99347.88
2023-01-18T18:28:12.370Z,99343.56
2023-01-18T18:31:16.195Z,99348.88
2023-01-18T18:34:17.790Z,99352.31
2023-01-18T18:37:19.945Z,99341.06
2023-01-18T18:40:22.229Z,99342.69
2023-01-18T18:43:24.627Z,99342.63
2023-01-18T18:46:26.259Z,99350.41
2023-01-18T18:49:27.832Z,99346.88
2023-01-18T18:52:29.385Z,99352.13
2023-01-18T18:55:31.594Z,99348.69
2023-01-18T18:58:39.689Z,99352.16
2023-01-18T19:01:41.350Z,99346.03
2023-01-18T19:04:42.901Z,99352.13
2023-01-18T19:07:47.034Z,99344.06
2023-01-18T19:10:49.831Z,99354.50
2023-01-18T19:13:51.479Z,99345.63
2023-01-18T19:16:56.262Z,99357.63
2023-01-18T19:19:58.060Z,99349.69
2023-01-18T19:23:01.521Z,99357.41
2023-01-18T19:26:03.963Z,99358.16
2023-01-18T19:29:05.647Z,99352.91
2023-01-18T19:32:07.217Z,99360.72
2023-01-18T19:35:09.057Z,99355.38
2023-01-18T19:38:10.630Z,99351.84
2023-01-18T19:41:12.699Z,99347.47
2023-01-18T19:44:14.243Z,99345.75
2023-01-18T19:47:15.889Z,99344.03
2023-01-18T19:50:17.600Z,99340.50
2023-01-18T19:53:19.215Z,99350.00
2023-01-18T19:56:21.207Z,99347.28
2023-01-18T19:59:22.802Z,99350.00
2023-01-18T20:02:24.661Z,99337.03
2023-01-18T20:05:27.364Z,99345.00
2023-01-18T20:08:28.928Z,99346.84
2023-01-18T20:11:30.445Z,99344.28
2023-01-18T20:14:41.005Z,99342.53
2023-01-18T20:17:43.566Z,99340.00
2023-01-18T20:20:45.142Z,99344.28
2023-01-18T20:23:46.825Z,99333.78
2023-01-18T20:26:48.366Z,99330.31
2023-01-18T20:29:50.165Z,99328.56
2023-01-18T20:32:51.700Z,99325.09
2023-01-18T20:35:53.244Z,99339.03
2023-01-18T20:38:54.815Z,99336.38
2023-01-18T20:41:56.390Z,99333.66
2023-01-18T20:45:00.486Z,99335.25
2023-01-18T20:48:02.583Z,99333.41
2023-01-18T20:51:05.978Z,99327.31
2023-01-18T20:54:07.643Z,99342.13
2023-01-18T20:57:09.672Z,99338.50
2023-01-18T21:00:15.831Z,99329.00
2023-01-18T21:03:18.309Z,99330.88
2023-01-18T21:06:19.860Z,99343.22
2023-01-18T21:09:21.410Z,99338.03
2023-01-18T21:12:22.943Z,99340.66
2023-01-18T21:15:24.507Z,99335.50
2023-01-18T21:18:26.931Z,99334.75
2023-01-18T21:21:29.725Z,99339.03
2023-01-18T21:24:31.264Z,99343.53
2023-01-18T21:27:33.166Z,99340.06
2023-01-18T21:30:34.733Z,99336.66
2023-01-18T21:33:36.495Z,99340.91
2023-01-18T21:36:38.394Z,99348.69
2023-01-18T21:39:39.940Z,99338.97
2023-01-18T21:42:59.900Z,99341.59
2023-01-18T21:46:01.638Z,99340.66
2023-01-18T21:49:06.866Z,99340.50
2023-01-18T21:52:27.146Z,99347.53
2023-01-18T21:55:28.706Z,99341.34
2023-01-18T21:58:49.027Z,99348.97
2023-01-18T22:01:50.756Z,99358.56
2023-01-18T22:04:59.246Z,99364.72
2023-01-18T22:08:01.189Z,99359.91
2023-01-18T22:11:03.001Z,99371.44
2023-01-18T22:14:06.769Z,99368.97
2023-01-18T22:17:08.665Z,99360.25
2023-01-18T22:20:11.347Z,99373.34
2023-01-18T22:23:12.880Z,99384.78
2023-01-18T22:26:14.601Z,99371.84
2023-01-18T22:29:16.226Z,99375.47
2023-01-18T22:32:17.833Z,99377.25
2023-01-18T22:35:19.386Z,99377.25
2023-01-18T22:38:20.956Z,99371.22
2023-01-18T22:41:27.830Z,99376.47
2023-01-18T22:44:29.455Z,99379.91
2023-01-18T22:47:31.006Z,99376.47
2023-01-18T22:50:32.578Z,99381.78
2023-01-18T22:53:35.208Z,99390.50
2023-01-18T22:56:36.797Z,99384.34
2023-01-18T22:59:38.369Z,99384.25
2023-01-18T23:02:39.893Z,99385.97
2023-01-18T23:05:41.778Z,99383.25
2023-01-18T23:08:43.707Z,99382.38
2023-01-18T23:11:47.577Z,99390.19
2023-01-18T23:15:07.973Z,99396.28
2023-01-18T23:18:09.544Z,99389.50
2023-01-18T23:21:11.096Z,99398.03
2023-01-18T23:24:13.233Z,99396.25
2023-01-18T23:27:14.825Z,99395.50
2023-01-18T23:30:16.428Z,99403.47
2023-01-18T23:33:17.954Z,99403.53
2023-01-18T23:36:19.581Z,99401.16
2023-01-18T23:39:39.823Z,99402.06
2023-01-18T23:43:00.502Z,99400.41
2023-01-18T23:46:20.504Z,99391.66
2023-01-18T23:49:40.392Z,99398.69
2023-01-18T23:53:00.265Z,99400.47
2023-01-18T23:56:01.878Z,99399.69
2023-01-18T23:59:03.583Z,99391.81
